Information for Los Angeles

back to airport list

ICAO Code:KLAX Country:USA
Airport Name:Los Angeles Is Hub:No
Latitude:33.9416 Longitude:-118.409
Scheduled Departures:0 Scheduled Arrivals:0
Total Past Departures:1 Total Past Arrivals:1
Pilots Based:0 Current Pilot Location:0
KLAX 242053Z 26012KT 10SM CLR 24/13 A2986 RMK AO2 SLP110 T02440128 58009 $


Nearby Destination Airports

ICAO Airport Country GC Distance View
KSFO San Francisco USA 293 NM View Airport Page


+ Show Timetable

Scheduled Departures from KLAX

Flight To Destination Days Dep. Time Aircraft Info
No Scheduled Departures!


Scheduled Arrivals to KLAX

Flight From Origin Days Arr. Time Aircraft Info
No Scheduled Arrivals!
+ Show Recent Flight Info

Recent Departures from KLAX

Flight To Destination Pilot Flighttime Landingrate Aircraft View
ASXC50 KDEN Denver International Airport Krzysztof H. Blaszkow 02.20.24 -148 ft/m B738 View Report


Recent Arrivals to KLAX

Flight From Origin Pilot Flighttime Landingrate Aircraft View
ASXC48 PHNL Honolulu Intl Krzysztof H. Blaszkow 05.33.38 -104 ft/m B738 View Report
+ Show Pilot Information

Pilots based at KLAX

Avatar Pilot ID Name Location Rank View Profile
No Pilots are based at this airport!


Pilots currently at KLAX

Avatar Pilot ID Name Location Rank On Location since View Profile
Currently there are no pilots at this airport!
- Hide Map